createdAt,value
2022-12-09T00:01:29.722Z,91.10
2022-12-09T00:03:57.114Z,91.10
2022-12-09T00:06:29.237Z,91.10
2022-12-09T00:08:57.629Z,91.10
2022-12-09T00:11:26.207Z,91.10
2022-12-09T00:13:55.316Z,91.10
2022-12-09T00:16:23.454Z,91.20
2022-12-09T00:18:50.977Z,91.10
2022-12-09T00:21:32.375Z,91.10
2022-12-09T00:24:02.908Z,91.10
2022-12-09T00:26:30.017Z,91.50
2022-12-09T00:28:57.667Z,91.20
2022-12-09T00:31:29.265Z,91.10
2022-12-09T00:33:58.405Z,91.20
2022-12-09T00:36:26.362Z,91.20
2022-12-09T00:38:55.105Z,91.20
2022-12-09T00:41:22.498Z,91.20
2022-12-09T00:43:49.603Z,91.20
2022-12-09T00:46:17.090Z,91.20
2022-12-09T00:48:48.162Z,91.20
2022-12-09T00:51:19.215Z,91.30
2022-12-09T00:53:47.646Z,91.20
2022-12-09T00:56:15.197Z,91.30
2022-12-09T00:58:42.415Z,91.60
2022-12-09T01:01:09.737Z,91.30
2022-12-09T01:03:37.058Z,91.30
2022-12-09T01:06:13.002Z,91.30
2022-12-09T01:08:40.428Z,91.20
2022-12-09T01:11:14.906Z,91.20
2022-12-09T01:13:42.370Z,91.20
2022-12-09T01:16:27.512Z,91.20
2022-12-09T01:18:57.563Z,91.50
2022-12-09T01:21:25.046Z,91.20
2022-12-09T01:23:52.577Z,91.20
2022-12-09T01:26:20.267Z,91.20
2022-12-09T01:28:51.303Z,91.20
2022-12-09T01:31:21.067Z,91.50
2022-12-09T01:33:48.656Z,91.10
2022-12-09T01:36:20.319Z,91.10
2022-12-09T01:38:48.613Z,91.10
2022-12-09T01:41:17.439Z,91.10
2022-12-09T01:43:45.312Z,91.10
2022-12-09T01:46:12.441Z,91.10
2022-12-09T01:48:43.482Z,91.10
2022-12-09T01:51:19.777Z,91.20
2022-12-09T01:53:50.355Z,91.10
2022-12-09T01:56:25.052Z,91.10
2022-12-09T01:58:54.323Z,91.10
2022-12-09T02:01:22.520Z,91.20
2022-12-09T02:03:50.408Z,91.20
2022-12-09T02:06:17.944Z,91.20
2022-12-09T02:08:46.822Z,91.30
2022-12-09T02:11:49.340Z,91.30
2022-12-09T02:14:25.812Z,91.30
2022-12-09T02:17:06.178Z,91.30
2022-12-09T02:20:17.983Z,91.40
2022-12-09T02:22:58.503Z,91.60
2022-12-09T02:25:48.146Z,91.40
2022-12-09T02:28:42.229Z,91.40
2022-12-09T02:31:34.616Z,91.40
2022-12-09T02:34:15.997Z,91.40
2022-12-09T02:36:59.659Z,91.50
2022-12-09T02:39:33.599Z,91.50
2022-12-09T02:42:03.894Z,91.50
2022-12-09T02:44:31.978Z,91.50
2022-12-09T02:47:00.386Z,91.50
2022-12-09T02:49:30.350Z,91.60
2022-12-09T02:51:58.820Z,91.50
2022-12-09T02:54:30.188Z,91.50
2022-12-09T02:57:00.993Z,91.60
2022-12-09T02:59:28.341Z,91.60
2022-12-09T03:02:12.332Z,91.60
2022-12-09T03:04:43.543Z,91.50
2022-12-09T03:07:31.009Z,91.60
2022-12-09T03:10:16.527Z,91.70
2022-12-09T03:12:50.210Z,91.70
2022-12-09T03:15:21.117Z,91.60
2022-12-09T03:17:49.304Z,91.70
2022-12-09T03:20:20.858Z,91.70
2022-12-09T03:22:50.410Z,91.70
2022-12-09T03:25:22.132Z,91.80
2022-12-09T03:27:57.826Z,91.80
2022-12-09T03:30:25.867Z,91.80
2022-12-09T03:32:55.649Z,91.80
2022-12-09T03:35:30.426Z,91.70
2022-12-09T03:38:01.875Z,91.80
2022-12-09T03:40:31.244Z,91.90
2022-12-09T03:43:16.316Z,91.80
2022-12-09T03:45:43.866Z,91.80
2022-12-09T03:48:11.740Z,91.90
2022-12-09T03:50:52.819Z,91.90
2022-12-09T03:53:27.664Z,91.90
2022-12-09T03:56:10.993Z,92.00
2022-12-09T03:58:41.268Z,92.00
2022-12-09T04:01:09.666Z,91.90
2022-12-09T04:03:38.688Z,91.90
2022-12-09T04:06:06.368Z,92.00
2022-12-09T04:08:33.827Z,91.90
2022-12-09T04:11:01.044Z,92.00
2022-12-09T04:13:28.232Z,92.10
2022-12-09T04:15:55.423Z,92.10
2022-12-09T04:18:22.685Z,92.10
2022-12-09T04:20:49.916Z,92.10
2022-12-09T04:23:17.056Z,92.10
2022-12-09T04:25:44.094Z,92.10
2022-12-09T04:28:11.389Z,92.10
2022-12-09T04:30:38.654Z,92.20
2022-12-09T04:33:06.128Z,92.10
2022-12-09T04:35:33.173Z,92.30
2022-12-09T04:38:00.701Z,92.20
2022-12-09T04:40:27.835Z,92.10
2022-12-09T04:42:54.912Z,92.30
2022-12-09T04:45:22.255Z,92.20
2022-12-09T04:47:49.540Z,92.20
2022-12-09T04:50:17.333Z,92.20
2022-12-09T04:52:44.588Z,92.20
2022-12-09T04:55:14.216Z,92.30
2022-12-09T04:57:41.708Z,92.40
2022-12-09T05:00:10.206Z,92.30
2022-12-09T05:02:37.576Z,92.30
2022-12-09T05:05:05.087Z,92.30
2022-12-09T05:07:32.929Z,92.30
2022-12-09T05:10:00.417Z,92.30
2022-12-09T05:12:27.650Z,92.40
2022-12-09T05:14:54.668Z,92.40
2022-12-09T05:17:21.899Z,92.50
2022-12-09T05:19:49.165Z,92.30
2022-12-09T05:22:18.361Z,92.40
2022-12-09T05:24:47.466Z,92.40
2022-12-09T05:27:15.707Z,92.40
2022-12-09T05:29:43.134Z,92.40
2022-12-09T05:32:10.488Z,92.50
2022-12-09T05:34:38.151Z,92.40
2022-12-09T05:37:05.494Z,92.50
2022-12-09T05:39:32.753Z,92.50
2022-12-09T05:41:59.971Z,92.50
2022-12-09T05:44:27.371Z,92.50
2022-12-09T05:46:54.863Z,92.50
2022-12-09T05:49:22.124Z,92.50
2022-12-09T05:51:49.657Z,92.50
2022-12-09T05:54:16.788Z,92.60
2022-12-09T05:56:48.150Z,92.50
2022-12-09T05:59:16.287Z,92.60
2022-12-09T06:01:43.443Z,92.60
2022-12-09T06:04:11.086Z,92.70
2022-12-09T06:06:38.784Z,92.70
2022-12-09T06:09:11.711Z,93.10
2022-12-09T06:11:40.374Z,93.00
2022-12-09T06:14:09.051Z,92.90
2022-12-09T06:16:36.734Z,92.90
2022-12-09T06:19:05.861Z,92.80
2022-12-09T06:21:33.095Z,92.80
2022-12-09T06:24:00.671Z,92.70
2022-12-09T06:26:30.218Z,92.70
2022-12-09T06:28:58.507Z,92.70
2022-12-09T06:31:27.686Z,92.70
2022-12-09T06:33:57.603Z,92.80
2022-12-09T06:36:27.009Z,92.70
2022-12-09T06:38:55.463Z,92.80
2022-12-09T06:41:23.348Z,92.80
2022-12-09T06:43:50.789Z,92.70
2022-12-09T06:46:26.310Z,92.80
2022-12-09T06:48:55.807Z,92.70
2022-12-09T06:51:25.127Z,92.70
2022-12-09T06:53:52.737Z,92.60
2022-12-09T06:56:20.305Z,92.80
2022-12-09T06:58:48.284Z,92.70
2022-12-09T07:01:18.581Z,92.70
2022-12-09T07:03:49.131Z,92.70
2022-12-09T07:06:40.457Z,92.70
2022-12-09T07:09:11.430Z,92.70
2022-12-09T07:11:40.491Z,92.70
2022-12-09T07:14:08.247Z,92.70
2022-12-09T07:16:35.911Z,92.70
2022-12-09T07:19:04.362Z,92.70
2022-12-09T07:21:32.051Z,92.70
2022-12-09T07:24:01.415Z,92.70
2022-12-09T07:26:32.770Z,92.60
2022-12-09T07:29:03.776Z,92.80
2022-12-09T07:31:31.906Z,92.70
2022-12-09T07:34:00.070Z,92.80
2022-12-09T07:36:29.667Z,93.00
2022-12-09T07:39:02.342Z,93.00
2022-12-09T07:41:29.728Z,93.00
2022-12-09T07:43:57.304Z,92.90
2022-12-09T07:46:27.612Z,92.90
2022-12-09T07:48:56.025Z,93.10
2022-12-09T07:51:25.181Z,92.90
2022-12-09T07:53:53.770Z,93.10
2022-12-09T07:56:22.389Z,93.00
2022-12-09T07:58:53.380Z,93.00
2022-12-09T08:01:26.978Z,93.10
2022-12-09T08:03:55.688Z,93.00
2022-12-09T08:06:25.168Z,93.00
2022-12-09T08:08:53.226Z,93.00
2022-12-09T08:11:24.440Z,93.00
2022-12-09T08:13:52.617Z,93.40
2022-12-09T08:16:22.133Z,93.00
2022-12-09T08:18:51.602Z,93.10
2022-12-09T08:21:23.391Z,93.10
2022-12-09T08:23:51.523Z,93.00
2022-12-09T08:26:21.575Z,93.10
2022-12-09T08:28:49.545Z,93.20
2022-12-09T08:31:19.868Z,93.20
2022-12-09T08:33:48.198Z,93.20
2022-12-09T08:36:21.159Z,93.10
2022-12-09T08:38:48.785Z,93.20
2022-12-09T08:41:22.259Z,93.20
2022-12-09T08:43:50.047Z,93.20
2022-12-09T08:46:17.310Z,93.10
2022-12-09T08:48:44.764Z,93.10
2022-12-09T08:51:12.708Z,93.20
2022-12-09T08:53:40.666Z,93.20
2022-12-09T08:56:12.902Z,93.10
2022-12-09T08:58:41.194Z,93.20
2022-12-09T09:01:15.608Z,93.20
2022-12-09T09:03:43.035Z,93.10
2022-12-09T09:06:11.361Z,93.30
2022-12-09T09:08:39.608Z,93.20
2022-12-09T09:11:16.302Z,93.30
2022-12-09T09:13:46.216Z,93.30
2022-12-09T09:16:18.684Z,93.30
2022-12-09T09:18:46.554Z,93.20
2022-12-09T09:21:16.082Z,93.20
2022-12-09T09:23:43.825Z,93.20
2022-12-09T09:26:20.084Z,93.30
2022-12-09T09:28:48.070Z,93.20
2022-12-09T09:31:18.431Z,93.30
2022-12-09T09:33:47.032Z,93.40
2022-12-09T09:36:21.824Z,93.30
2022-12-09T09:38:50.797Z,93.20
2022-12-09T09:41:40.134Z,93.30
2022-12-09T09:44:28.127Z,93.40
2022-12-09T09:46:56.752Z,93.40
2022-12-09T09:49:51.123Z,93.30
2022-12-09T09:52:28.212Z,93.40
2022-12-09T09:54:55.833Z,93.30
2022-12-09T09:57:32.682Z,93.30
2022-12-09T10:00:14.432Z,93.30
2022-12-09T10:03:02.570Z,93.40
2022-12-09T10:05:35.957Z,93.30
2022-12-09T10:08:21.883Z,93.30
2022-12-09T10:11:11.225Z,93.40
2022-12-09T10:14:07.341Z,93.40
2022-12-09T10:16:56.624Z,93.30
2022-12-09T10:19:30.092Z,93.40
2022-12-09T10:21:59.942Z,93.30
2022-12-09T10:24:39.159Z,93.40
2022-12-09T10:27:27.789Z,93.40
2022-12-09T10:30:12.671Z,93.40
2022-12-09T10:32:40.555Z,93.40
2022-12-09T10:35:22.663Z,93.40
2022-12-09T10:37:52.852Z,93.50
2022-12-09T10:40:38.921Z,93.50
2022-12-09T10:43:41.294Z,93.50
2022-12-09T10:46:21.504Z,93.50
2022-12-09T10:48:49.758Z,93.60
2022-12-09T10:51:21.898Z,93.60
2022-12-09T10:54:06.361Z,93.50
2022-12-09T10:56:36.816Z,93.50
2022-12-09T10:59:15.978Z,93.50
2022-12-09T11:02:01.975Z,93.50
2022-12-09T11:04:42.121Z,93.50
2022-12-09T11:07:12.997Z,93.50
2022-12-09T11:09:40.572Z,93.60
2022-12-09T11:12:28.590Z,93.50
2022-12-09T11:14:59.079Z,93.50
2022-12-09T11:17:28.561Z,93.50
2022-12-09T11:20:18.614Z,93.60
2022-12-09T11:22:58.020Z,93.60
2022-12-09T11:25:28.782Z,93.60
2022-12-09T11:28:02.131Z,93.70
2022-12-09T11:30:57.839Z,93.50
2022-12-09T11:33:35.812Z,93.70
2022-12-09T11:36:09.718Z,93.70
2022-12-09T11:38:43.884Z,93.60
2022-12-09T11:41:37.662Z,93.70
2022-12-09T11:44:30.447Z,93.70
2022-12-09T11:48:22.638Z,93.70
2022-12-09T11:50:32.645Z,93.80
2022-12-09T11:53:39.305Z,93.70
2022-12-09T11:56:32.959Z,93.70
2022-12-09T11:59:13.951Z,93.60
2022-12-09T12:01:58.970Z,93.60
2022-12-09T12:04:49.545Z,93.60
2022-12-09T12:07:23.064Z,93.70
2022-12-09T12:09:56.579Z,93.80
2022-12-09T12:12:44.240Z,93.80
2022-12-09T12:15:47.198Z,93.70
2022-12-09T12:18:20.354Z,93.80
2022-12-09T12:21:02.568Z,93.70
2022-12-09T12:23:32.356Z,93.70
2022-12-09T12:26:25.054Z,93.70
2022-12-09T12:29:07.840Z,93.80
2022-12-09T12:31:43.973Z,93.70
2022-12-09T12:34:51.145Z,93.80
2022-12-09T12:37:18.382Z,93.80
2022-12-09T12:39:48.310Z,93.70
2022-12-09T12:42:39.555Z,93.80
2022-12-09T12:45:37.402Z,93.80
2022-12-09T12:48:27.820Z,93.80
2022-12-09T12:51:19.394Z,93.70
2022-12-09T12:54:19.782Z,93.90
2022-12-09T12:57:09.616Z,93.80
2022-12-09T12:59:59.739Z,93.70
2022-12-09T13:02:38.358Z,93.80
2022-12-09T13:05:16.146Z,93.80
2022-12-09T13:08:01.716Z,93.80
2022-12-09T13:10:34.434Z,93.80
2022-12-09T13:13:02.999Z,93.80
2022-12-09T13:15:52.806Z,93.80
2022-12-09T13:18:28.934Z,93.80
2022-12-09T13:21:00.783Z,93.80
2022-12-09T13:23:46.566Z,93.90
2022-12-09T13:26:31.116Z,93.90
2022-12-09T13:29:19.067Z,93.80
2022-12-09T13:31:57.901Z,93.80
2022-12-09T13:34:38.809Z,93.80
2022-12-09T13:37:25.877Z,93.90
2022-12-09T13:39:58.038Z,93.90
2022-12-09T13:43:03.364Z,94.00
2022-12-09T13:45:36.272Z,93.80
2022-12-09T13:48:26.445Z,93.80
2022-12-09T13:50:57.793Z,93.70
2022-12-09T13:53:32.315Z,94.00
2022-12-09T13:56:24.079Z,93.90
2022-12-09T13:59:15.666Z,93.90
2022-12-09T14:01:55.020Z,93.90
2022-12-09T14:04:34.968Z,93.90
2022-12-09T14:07:26.803Z,93.90
2022-12-09T14:09:56.489Z,93.90
2022-12-09T14:12:26.316Z,93.90
2022-12-09T14:14:57.647Z,94.00
2022-12-09T14:17:30.273Z,94.20
2022-12-09T14:19:57.247Z,94.00
2022-12-09T14:22:24.211Z,94.00
2022-12-09T14:24:53.650Z,93.90
2022-12-09T14:27:31.820Z,93.90
2022-12-09T14:30:41.050Z,93.90
2022-12-09T14:33:29.623Z,93.90
2022-12-09T14:36:06.266Z,93.80
2022-12-09T14:39:08.309Z,93.80
2022-12-09T14:41:56.292Z,93.90
2022-12-09T14:44:32.192Z,94.00
2022-12-09T14:47:20.543Z,93.90
2022-12-09T14:49:49.614Z,93.80
2022-12-09T14:52:27.332Z,93.90
2022-12-09T14:54:56.365Z,93.90
2022-12-09T14:57:37.638Z,94.00
2022-12-09T15:00:07.077Z,93.90
2022-12-09T15:02:34.499Z,93.80
2022-12-09T15:05:02.834Z,93.90
2022-12-09T15:07:34.372Z,93.80
2022-12-09T15:10:06.894Z,93.80
2022-12-09T15:12:42.835Z,93.80
2022-12-09T15:15:19.029Z,93.80
2022-12-09T15:17:59.142Z,93.90
2022-12-09T15:20:35.690Z,93.80
2022-12-09T15:23:04.909Z,93.70
2022-12-09T15:25:33.703Z,93.70
2022-12-09T15:28:02.722Z,93.80
2022-12-09T15:30:35.965Z,93.80
2022-12-09T15:33:04.285Z,93.80
2022-12-09T15:35:36.167Z,93.80
2022-12-09T15:38:07.236Z,93.80
2022-12-09T15:40:36.912Z,93.80
2022-12-09T15:43:10.075Z,93.90
2022-12-09T15:45:39.207Z,93.80
2022-12-09T15:48:14.442Z,93.80
2022-12-09T15:50:51.072Z,93.70
2022-12-09T15:53:28.055Z,93.70
2022-12-09T15:56:07.636Z,93.50
2022-12-09T15:58:44.797Z,93.70
2022-12-09T16:01:22.796Z,93.70
2022-12-09T16:03:51.726Z,93.70
2022-12-09T16:06:28.931Z,93.60
2022-12-09T16:08:56.098Z,93.60
2022-12-09T16:11:48.566Z,93.50
2022-12-09T16:14:21.012Z,93.50
2022-12-09T16:16:54.711Z,93.40
2022-12-09T16:19:41.035Z,93.40
2022-12-09T16:22:15.732Z,93.40
2022-12-09T16:27:37.439Z,93.40
2022-12-09T16:30:13.597Z,93.40
2022-12-09T16:32:51.571Z,93.40
2022-12-09T16:35:40.980Z,93.40
2022-12-09T16:38:10.742Z,93.40
2022-12-09T16:40:43.642Z,93.30
2022-12-09T16:43:17.074Z,93.30
2022-12-09T16:45:54.317Z,93.30
2022-12-09T16:48:23.591Z,93.20
2022-12-09T16:51:11.782Z,93.20
2022-12-09T16:53:44.615Z,93.30
2022-12-09T16:56:23.854Z,93.30
2022-12-09T16:58:51.457Z,93.20
2022-12-09T17:01:20.435Z,93.20
2022-12-09T17:04:23.235Z,93.20
2022-12-09T17:06:50.582Z,93.20
2022-12-09T17:09:17.660Z,93.20
2022-12-09T17:11:48.775Z,93.30
2022-12-09T17:14:17.551Z,93.20
2022-12-09T17:16:45.004Z,93.20
2022-12-09T17:19:12.095Z,93.20
2022-12-09T17:21:39.258Z,93.20
2022-12-09T17:24:06.748Z,93.20
2022-12-09T17:26:33.848Z,93.10
2022-12-09T17:29:02.069Z,93.10
2022-12-09T17:31:29.937Z,93.20
2022-12-09T17:33:57.721Z,93.10
2022-12-09T17:36:24.823Z,93.20
2022-12-09T17:38:51.874Z,93.10
2022-12-09T17:41:23.537Z,93.10
2022-12-09T17:43:50.791Z,93.10
2022-12-09T17:46:18.194Z,93.10
2022-12-09T17:48:45.576Z,93.10
2022-12-09T17:51:14.992Z,93.00
2022-12-09T17:53:43.353Z,93.10
2022-12-09T17:56:16.021Z,93.10
2022-12-09T17:58:43.806Z,93.20
2022-12-09T18:01:19.414Z,93.20
2022-12-09T18:03:56.128Z,93.40
2022-12-09T18:06:27.411Z,93.50
2022-12-09T18:08:54.835Z,93.40
2022-12-09T18:11:22.555Z,93.40
2022-12-09T18:13:49.951Z,93.40
2022-12-09T18:16:17.812Z,93.40
2022-12-09T18:18:45.194Z,93.40
2022-12-09T18:21:15.991Z,93.40
2022-12-09T18:23:43.560Z,93.50
2022-12-09T18:26:13.060Z,93.30
2022-12-09T18:28:40.378Z,93.40
2022-12-09T18:31:08.723Z,93.30
2022-12-09T18:33:38.556Z,93.40
2022-12-09T18:36:07.409Z,93.40
2022-12-09T18:38:34.722Z,93.40
2022-12-09T18:41:01.771Z,93.40
2022-12-09T18:43:31.659Z,93.30
2022-12-09T18:46:07.559Z,93.30
2022-12-09T18:48:35.172Z,93.30
2022-12-09T18:51:02.323Z,93.20
2022-12-09T18:53:30.295Z,93.30
2022-12-09T18:55:57.328Z,93.30
2022-12-09T18:58:49.607Z,93.30
2022-12-09T19:01:24.028Z,93.10
2022-12-09T19:03:54.189Z,93.30
2022-12-09T19:06:24.433Z,93.30
2022-12-09T19:08:55.208Z,93.20
2022-12-09T19:11:24.444Z,93.10
2022-12-09T19:13:51.548Z,93.20
2022-12-09T19:16:19.036Z,93.20
2022-12-09T19:18:46.679Z,93.00
2022-12-09T19:21:16.435Z,93.20
2022-12-09T19:23:45.182Z,93.20
2022-12-09T19:26:33.722Z,93.20
2022-12-09T19:29:04.196Z,93.20
2022-12-09T19:31:36.148Z,93.10
2022-12-09T19:34:14.173Z,93.10
2022-12-09T19:36:41.753Z,93.10
2022-12-09T19:39:10.108Z,93.10
2022-12-09T19:41:40.439Z,93.00
2022-12-09T19:44:21.550Z,93.10
2022-12-09T19:46:57.704Z,93.00
2022-12-09T19:49:24.914Z,93.00
2022-12-09T19:51:53.271Z,93.00
2022-12-09T19:54:26.702Z,93.00
2022-12-09T19:56:56.122Z,93.10
2022-12-09T19:59:23.314Z,93.10
2022-12-09T20:01:50.704Z,93.10
2022-12-09T20:07:08.591Z,93.10
2022-12-09T20:09:36.809Z,93.10
2022-12-09T20:12:04.085Z,93.00
2022-12-09T20:14:31.507Z,93.00
2022-12-09T20:16:58.609Z,93.00
2022-12-09T20:19:25.656Z,93.00
2022-12-09T20:21:52.893Z,93.00
2022-12-09T20:24:19.954Z,93.00
2022-12-09T20:26:47.036Z,93.00
2022-12-09T20:29:14.124Z,93.00
2022-12-09T20:31:42.772Z,93.00
2022-12-09T20:34:14.885Z,92.90
2022-12-09T20:36:45.905Z,92.90
2022-12-09T20:39:16.703Z,92.90
2022-12-09T20:41:44.580Z,92.90
2022-12-09T20:44:13.188Z,92.90
2022-12-09T20:46:41.489Z,92.90
2022-12-09T20:49:10.057Z,92.90
2022-12-09T20:51:39.429Z,92.90
2022-12-09T20:54:08.480Z,92.90
2022-12-09T20:56:35.852Z,92.90
2022-12-09T20:59:04.791Z,92.90
2022-12-09T21:01:35.921Z,92.80
2022-12-09T21:04:06.140Z,92.80
2022-12-09T21:06:36.977Z,92.80
2022-12-09T21:09:06.779Z,92.80
2022-12-09T21:11:34.081Z,92.80
2022-12-09T21:14:03.618Z,92.80
2022-12-09T21:16:37.239Z,92.80
2022-12-09T21:19:06.034Z,92.80
2022-12-09T21:21:35.298Z,92.80
2022-12-09T21:24:04.371Z,92.80
2022-12-09T21:26:31.687Z,92.80
2022-12-09T21:29:01.115Z,92.90
2022-12-09T21:31:35.622Z,92.80
2022-12-09T21:34:05.158Z,92.80
2022-12-09T21:36:40.342Z,92.80
2022-12-09T21:39:09.345Z,92.90
2022-12-09T21:41:37.837Z,92.80
2022-12-09T21:44:06.223Z,92.90
2022-12-09T21:46:36.761Z,92.80
2022-12-09T21:49:06.095Z,92.80
2022-12-09T21:51:34.862Z,92.80
2022-12-09T21:54:02.342Z,92.80
2022-12-09T21:56:31.368Z,92.80
2022-12-09T21:58:59.150Z,92.80
2022-12-09T22:01:32.080Z,92.90
2022-12-09T22:04:00.772Z,92.90
2022-12-09T22:06:28.742Z,92.80
2022-12-09T22:08:58.139Z,92.80
2022-12-09T22:11:27.663Z,92.90
2022-12-09T22:14:00.265Z,92.80
2022-12-09T22:16:30.659Z,92.80
2022-12-09T22:18:59.429Z,92.80
2022-12-09T22:21:29.398Z,92.70
2022-12-09T22:23:59.244Z,92.80
2022-12-09T22:26:27.124Z,92.80
2022-12-09T22:28:54.476Z,92.70
2022-12-09T22:31:28.200Z,92.70
2022-12-09T22:34:00.503Z,92.70
2022-12-09T22:36:27.877Z,92.70
2022-12-09T22:38:55.536Z,92.70
2022-12-09T22:41:25.814Z,92.70
2022-12-09T22:43:54.881Z,92.70
2022-12-09T22:46:28.744Z,92.60
2022-12-09T22:48:57.367Z,92.70
2022-12-09T22:51:27.124Z,92.70
2022-12-09T22:53:57.129Z,92.70
2022-12-09T22:56:25.144Z,92.70
2022-12-09T22:58:52.801Z,92.60
2022-12-09T23:01:28.981Z,92.60
2022-12-09T23:03:57.557Z,92.70
2022-12-09T23:06:26.123Z,92.70
2022-12-09T23:08:53.588Z,92.70
2022-12-09T23:11:23.671Z,92.70
2022-12-09T23:13:51.203Z,92.70
2022-12-09T23:16:21.167Z,92.70
2022-12-09T23:18:48.566Z,92.70
2022-12-09T23:21:24.898Z,92.70
2022-12-09T23:23:53.677Z,92.70
2022-12-09T23:26:22.464Z,92.70
2022-12-09T23:28:52.004Z,92.70
2022-12-09T23:31:21.728Z,92.70
2022-12-09T23:33:50.365Z,92.60
2022-12-09T23:36:32.115Z,92.60
2022-12-09T23:39:00.157Z,92.60
2022-12-09T23:41:27.810Z,92.70
2022-12-09T23:43:55.126Z,92.60
2022-12-09T23:46:24.744Z,92.70
2022-12-09T23:48:52.742Z,92.70
2022-12-09T23:51:29.303Z,92.70
2022-12-09T23:53:58.767Z,92.60
2022-12-09T23:56:28.554Z,92.60
2022-12-09T23:58:57.902Z,92.60
